Time;durP1;ratioP1;P1;durP2;ratioP2;P2;SDS_P1;SDS_P2;PMS_P1;PMS_P2;Temp;Humidity;BMP_temperature;BMP_pressure;BME280_temperature;BME280_humidity;BME280_pressure;Samples;Min_cycle;Max_cycle;Signal;HPM_P1;HPM_P2
2023/05/25 00:01:27;;;;;;;12.27;5.50;;;;;;;-148.88;100.00;-17125.47;4974037;28;20026;-76
2023/05/25 00:03:54;;;;;;;21.52;9.95;;;;;;;-148.88;100.00;-17125.47;4973932;28;20027;-77
2023/05/25 00:06:20;;;;;;;13.63;6.30;;;;;;;-148.88;100.00;-17125.47;4975483;28;20149;-76
2023/05/25 00:08:46;;;;;;;22.40;10.05;;;;;;;-148.88;100.00;-17125.47;4975273;28;20146;-76
2023/05/25 00:11:12;;;;;;;20.42;10.38;;;;;;;-148.88;100.00;-17125.47;4973910;28;20475;-76
2023/05/25 00:13:38;;;;;;;11.80;5.70;;;;;;;-148.88;100.00;-17125.47;4973767;28;20041;-76
2023/05/25 00:16:04;;;;;;;20.38;10.05;;;;;;;-148.88;100.00;-17125.47;4975327;28;20031;-76
2023/05/25 00:18:31;;;;;;;18.55;10.40;;;;;;;-148.88;100.00;-17125.47;4975176;28;20033;-76
2023/05/25 00:20:57;;;;;;;18.58;10.32;;;;;;;-148.88;100.00;-17125.47;4974949;28;20388;-76
2023/05/25 00:23:23;;;;;;;24.40;6.90;;;;;;;-148.88;100.00;-17125.47;4973742;28;20487;-76
2023/05/25 00:25:48;;;;;;;16.33;6.38;;;;;;;-148.88;100.00;-17125.47;4975333;28;20113;-76
2023/05/25 00:28:13;;;;;;;18.08;11.07;;;;;;;-148.88;100.00;-17125.47;4973728;28;20030;-75
2023/05/25 00:30:39;;;;;;;17.98;10.98;;;;;;;-148.88;100.00;-17125.47;4974862;28;20105;-76
2023/05/25 00:33:04;;;;;;;22.55;10.57;;;;;;;-148.88;100.00;-17125.47;4975062;28;20027;-76
2023/05/25 00:35:29;;;;;;;12.88;5.90;;;;;;;-148.88;100.00;-17125.47;4975427;28;20109;-76
2023/05/25 00:37:55;;;;;;;16.73;6.38;;;;;;;-148.88;100.00;-17125.47;4974827;28;20027;-76
2023/05/25 00:40:20;;;;;;;17.08;9.60;;;;;;;-148.88;100.00;-17125.47;4974760;28;20027;-76
2023/05/25 00:42:46;;;;;;;17.13;10.30;;;;;;;-148.88;100.00;-17125.47;4974572;28;20054;-76
2023/05/25 00:45:12;;;;;;;17.98;10.50;;;;;;;-148.88;100.00;-17125.47;4974692;28;20112;-76
2023/05/25 00:47:38;;;;;;;14.35;6.07;;;;;;;-148.88;100.00;-17125.47;4973803;28;20030;-76
2023/05/25 00:50:08;;;;;;;15.05;6.47;;;;;;;-148.88;100.00;-17125.47;4973401;28;20512;-76
2023/05/25 00:52:34;;;;;;;22.80;11.40;;;;;;;-148.88;100.00;-17125.47;4973215;28;20021;-76
2023/05/25 00:55:01;;;;;;;18.65;11.07;;;;;;;-148.88;100.00;-17125.47;4973275;28;20030;-76
2023/05/25 00:57:32;;;;;;;15.18;6.55;;;;;;;-148.88;100.00;-17125.47;4974698;28;20030;-76
2023/05/25 00:59:59;;;;;;;23.58;11.85;;;;;;;-148.88;100.00;-17125.47;4975199;28;20476;-76
2023/05/25 01:02:28;;;;;;;24.35;12.40;;;;;;;-148.88;100.00;-17125.47;4973090;28;20499;-76
2023/05/25 01:04:58;;;;;;;18.17;6.78;;;;;;;-148.88;100.00;-17125.47;4974504;28;20510;-76
2023/05/25 01:07:26;;;;;;;13.85;6.40;;;;;;;-148.88;100.00;-17125.47;4974965;28;20023;-75
2023/05/25 01:10:01;;;;;;;27.08;12.70;;;;;;;-148.88;100.00;-17125.47;4976207;28;20093;-75
2023/05/25 01:12:35;;;;;;;17.25;7.60;;;;;;;-148.88;100.00;-17125.47;4977172;28;20015;-75
2023/05/25 01:15:02;;;;;;;20.58;8.20;;;;;;;-148.88;100.00;-17125.47;4978395;28;20106;-75
2023/05/25 01:17:28;;;;;;;17.95;7.88;;;;;;;-148.88;100.00;-17125.47;4978366;28;20492;-75
2023/05/25 01:19:53;;;;;;;27.23;14.02;;;;;;;-148.88;100.00;-17125.47;4978067;28;20039;-75
2023/05/25 01:22:37;;;;;;;20.23;7.55;;;;;;;-148.88;100.00;-17125.47;4978184;28;20065;-75
2023/05/25 01:25:10;;;;;;;28.15;13.35;;;;;;;-148.88;100.00;-17125.47;4978267;28;20033;-75
2023/05/25 01:27:53;;;;;;;24.88;7.47;;;;;;;-148.88;100.00;-17125.47;4978413;28;20034;-75
2023/05/25 01:30:23;;;;;;;22.67;13.80;;;;;;;-148.88;100.00;-17125.47;4976854;28;20114;-75
2023/05/25 01:32:48;;;;;;;18.45;7.13;;;;;;;-148.88;100.00;-17125.47;4976708;28;20121;-78
2023/05/25 01:35:15;;;;;;;17.08;8.35;;;;;;;-148.88;100.00;-17125.47;4976999;28;20113;-75
2023/05/25 01:37:48;;;;;;;18.58;7.63;;;;;;;-148.88;100.00;-17125.47;4977918;28;20034;-75
2023/05/25 01:40:14;;;;;;;24.00;14.40;;;;;;;-148.88;100.00;-17125.47;4977896;28;20031;-75
2023/05/25 01:42:40;;;;;;;21.55;8.90;;;;;;;-148.88;100.00;-17125.47;4977796;28;20085;-75
2023/05/25 01:45:07;;;;;;;20.42;7.35;;;;;;;-148.88;100.00;-17125.47;4977766;28;20027;-75
2023/05/25 01:47:52;;;;;;;19.55;8.10;;;;;;;-148.88;100.00;-17125.47;4977602;28;20026;-75
2023/05/25 01:50:35;;;;;;;19.30;6.88;;;;;;;-148.88;100.00;-17125.47;4957277;28;20498;-75
2023/05/25 01:53:11;;;;;;;20.05;7.47;;;;;;;-148.88;100.00;-17125.47;4977755;28;20366;-75
2023/05/25 01:55:45;;;;;;;15.30;7.28;;;;;;;-148.88;100.00;-17125.47;4977904;28;20107;-75
2023/05/25 01:58:13;;;;;;;24.08;14.00;;;;;;;-148.88;100.00;-17125.47;4976216;28;20118;-75
2023/05/25 02:00:39;;;;;;;27.70;14.23;;;;;;;-148.88;100.00;-17125.47;4977474;28;20038;-75
2023/05/25 02:03:04;;;;;;;21.70;7.63;;;;;;;-148.88;100.00;-17125.47;4977930;28;20034;-75
2023/05/25 02:05:30;;;;;;;19.23;7.68;;;;;;;-148.88;100.00;-17125.47;4977432;28;20029;-75
2023/05/25 02:07:55;;;;;;;19.38;6.80;;;;;;;-148.88;100.00;-17125.47;4977379;28;20030;-75
2023/05/25 02:10:21;;;;;;;18.15;7.07;;;;;;;-148.88;100.00;-17125.47;4977408;28;20035;-75
2023/05/25 02:12:46;;;;;;;18.08;7.28;;;;;;;-148.88;100.00;-17125.47;4977235;28;20022;-75
2023/05/25 02:15:11;;;;;;;24.23;7.50;;;;;;;-148.88;100.00;-17125.47;4977219;28;20061;-75
2023/05/25 02:17:37;;;;;;;15.52;7.35;;;;;;;-148.88;100.00;-17125.47;4975979;28;20030;-75
2023/05/25 02:20:07;;;;;;;18.65;7.43;;;;;;;-148.88;100.00;-17125.47;4975382;28;20026;-75
2023/05/25 02:22:32;;;;;;;19.92;7.43;;;;;;;-148.88;100.00;-17125.47;4977278;28;20038;-75
2023/05/25 02:24:58;;;;;;;15.63;8.18;;;;;;;-148.88;100.00;-17125.47;4977034;28;20023;-75
2023/05/25 02:27:23;;;;;;;24.90;10.45;;;;;;;-148.88;100.00;-17125.47;4977275;28;20503;-75
2023/05/25 02:29:49;;;;;;;28.00;15.05;;;;;;;-148.88;100.00;-17125.47;4976981;28;20076;-75
2023/05/25 02:32:15;;;;;;;21.17;8.15;;;;;;;-148.88;100.00;-17125.47;4976890;28;20491;-75
2023/05/25 02:34:40;;;;;;;19.58;8.85;;;;;;;-148.88;100.00;-17125.47;4976867;28;20041;-75
2023/05/25 02:37:05;;;;;;;18.55;8.38;;;;;;;-148.88;100.00;-17125.47;4975581;28;20027;-75
2023/05/25 02:39:31;;;;;;;21.73;7.13;;;;;;;-148.88;100.00;-17125.47;4976774;28;20106;-76
2023/05/25 02:41:56;;;;;;;26.98;15.40;;;;;;;-148.88;100.00;-17125.47;4975443;28;20046;-76
2023/05/25 02:44:22;;;;;;;27.38;15.00;;;;;;;-148.88;100.00;-17125.47;4976759;28;20031;-76
2023/05/25 02:46:47;;;;;;;24.33;14.63;;;;;;;-148.88;100.00;-17125.47;4976818;28;20162;-76
2023/05/25 02:49:13;;;;;;;19.75;7.43;;;;;;;-148.88;100.00;-17125.47;4975430;28;20487;-76
2023/05/25 02:51:38;;;;;;;22.95;8.23;;;;;;;-148.88;100.00;-17125.47;4976837;28;20019;-76
2023/05/25 02:54:04;;;;;;;26.90;8.50;;;;;;;-148.88;100.00;-17125.47;4976502;28;20498;-76
2023/05/25 02:56:30;;;;;;;20.50;8.20;;;;;;;-148.88;100.00;-17125.47;4975295;28;20023;-75
2023/05/25 02:58:58;;;;;;;19.15;7.70;;;;;;;-148.88;100.00;-17125.47;4976433;28;20074;-76
2023/05/25 03:01:24;;;;;;;20.77;7.78;;;;;;;-148.88;100.00;-17125.47;4976344;28;20035;-76
2023/05/25 03:03:51;;;;;;;21.30;8.10;;;;;;;-148.88;100.00;-17125.47;4976307;28;20387;-75
2023/05/25 03:06:17;;;;;;;19.77;7.40;;;;;;;-148.88;100.00;-17125.47;4976334;28;20074;-76
2023/05/25 03:08:42;;;;;;;20.75;8.80;;;;;;;-148.88;100.00;-17125.47;4976770;28;20035;-75
2023/05/25 03:11:08;;;;;;;19.17;8.15;;;;;;;-148.88;100.00;-17125.47;4976247;28;20027;-75
2023/05/25 03:13:33;;;;;;;23.77;8.18;;;;;;;-148.88;100.00;-17125.47;4974807;28;20033;-75
2023/05/25 03:15:59;;;;;;;17.92;8.43;;;;;;;-148.88;100.00;-17125.47;4976147;28;20042;-75
2023/05/25 03:18:24;;;;;;;21.67;8.88;;;;;;;-148.88;100.00;-17125.47;4975993;28;20027;-76
2023/05/25 03:20:50;;;;;;;18.48;8.60;;;;;;;-148.88;100.00;-17125.47;4974807;28;20038;-75
2023/05/25 03:23:15;;;;;;;26.33;8.93;;;;;;;-148.88;100.00;-17125.47;4976058;28;20026;-75
2023/05/25 03:25:41;;;;;;;23.77;9.10;;;;;;;-148.88;100.00;-17125.47;4976489;28;20042;-76
2023/05/25 03:28:06;;;;;;;23.98;8.57;;;;;;;-148.88;100.00;-17125.47;4975864;28;20058;-75
2023/05/25 03:30:32;;;;;;;20.08;8.63;;;;;;;-148.88;100.00;-17125.47;4975542;28;20048;-76
2023/05/25 03:32:57;;;;;;;24.23;8.10;;;;;;;-148.88;100.00;-17125.47;4975309;28;20022;-75
2023/05/25 03:35:23;;;;;;;23.15;9.18;;;;;;;-148.88;100.00;-17125.47;4974461;28;20077;-75
2023/05/25 03:37:48;;;;;;;31.08;12.48;;;;;;;-148.88;100.00;-17125.47;4975753;28;20027;-76
2023/05/25 03:40:13;;;;;;;32.45;10.27;;;;;;;-148.88;100.00;-17125.47;4974440;28;20023;-76
2023/05/25 03:42:39;;;;;;;21.40;10.15;;;;;;;-148.88;100.00;-17125.47;4974269;28;20023;-75
2023/05/25 03:45:07;;;;;;;27.05;9.45;;;;;;;-148.88;100.00;-17125.47;4975648;28;20402;-76
2023/05/25 03:47:33;;;;;;;22.35;10.02;;;;;;;-148.88;100.00;-17125.47;4974286;28;20027;-75
2023/05/25 03:49:58;;;;;;;22.67;9.63;;;;;;;-148.88;100.00;-17125.47;4974277;28;20030;-75
2023/05/25 03:52:24;;;;;;;27.48;10.70;;;;;;;-148.88;100.00;-17125.47;4975425;28;20033;-75
2023/05/25 03:54:49;;;;;;;20.65;10.13;;;;;;;-148.88;100.00;-17125.47;4975436;28;20031;-75
2023/05/25 03:57:15;;;;;;;20.33;9.27;;;;;;;-148.88;100.00;-17125.47;4975404;28;20034;-75
2023/05/25 03:59:40;;;;;;;24.13;10.25;;;;;;;-148.88;100.00;-17125.47;4974135;28;20034;-75
2023/05/25 04:02:05;;;;;;;24.48;9.15;;;;;;;-148.88;100.00;-17125.47;4975349;28;20023;-75
2023/05/25 04:04:31;;;;;;;31.20;18.42;;;;;;;-148.88;100.00;-17125.47;4975405;28;20476;-75
2023/05/25 04:06:56;;;;;;;24.52;9.82;;;;;;;-148.88;100.00;-17125.47;4975474;28;20070;-75
2023/05/25 04:09:22;;;;;;;23.10;10.55;;;;;;;-148.88;100.00;-17125.47;4975268;28;20019;-75
2023/05/25 04:11:47;;;;;;;26.27;9.90;;;;;;;-148.88;100.00;-17125.47;4975098;28;20075;-75
2023/05/25 04:14:12;;;;;;;23.88;9.82;;;;;;;-148.88;100.00;-17125.47;4973842;28;20031;-75
2023/05/25 04:16:41;;;;;;;34.60;11.02;;;;;;;-148.88;100.00;-17125.47;4975000;28;20035;-75
2023/05/25 04:19:07;;;;;;;24.67;10.35;;;;;;;-148.88;100.00;-17125.47;4974848;28;20034;-75
2023/05/25 04:21:32;;;;;;;25.50;10.85;;;;;;;-148.88;100.00;-17125.47;4975123;28;20038;-75
2023/05/25 04:23:57;;;;;;;26.90;10.10;;;;;;;-148.88;100.00;-17125.47;4974878;28;20027;-75
2023/05/25 04:26:25;;;;;;;20.83;9.50;;;;;;;-148.88;100.00;-17125.47;4974899;28;20117;-75
2023/05/25 04:28:53;;;;;;;20.95;9.43;;;;;;;-148.88;100.00;-17125.47;4973673;28;20035;-75
2023/05/25 04:31:19;;;;;;;28.80;12.15;;;;;;;-148.88;100.00;-17125.47;4973620;28;20358;-75
2023/05/25 04:33:44;;;;;;;23.05;10.15;;;;;;;-148.88;100.00;-17125.47;4974735;28;20555;-75
2023/05/25 04:36:09;;;;;;;23.42;9.52;;;;;;;-148.88;100.00;-17125.47;4975066;28;20430;-75
2023/05/25 04:38:35;;;;;;;29.52;18.52;;;;;;;-148.88;100.00;-17125.47;4974761;28;20033;-75
2023/05/25 04:41:05;;;;;;;29.98;10.85;;;;;;;-148.88;100.00;-17125.47;4974819;28;20428;-75
2023/05/25 04:43:30;;;;;;;23.08;9.43;;;;;;;-148.88;100.00;-17125.47;4974593;28;20023;-74
2023/05/25 04:45:56;;;;;;;26.95;9.57;;;;;;;-148.88;100.00;-17125.47;4974684;28;20477;-74
2023/05/25 04:48:23;;;;;;;24.92;9.70;;;;;;;-148.88;100.00;-17125.47;4974653;28;20030;-75
2023/05/25 04:50:49;;;;;;;29.55;17.73;;;;;;;-148.88;100.00;-17125.47;4975087;28;20027;-75
2023/05/25 04:53:14;;;;;;;21.25;10.40;;;;;;;-148.88;100.00;-17125.47;4974546;28;20033;-74
2023/05/25 04:55:40;;;;;;;23.27;9.35;;;;;;;-148.88;100.00;-17125.47;4975160;28;20077;-74
2023/05/25 04:58:06;;;;;;;30.10;18.80;;;;;;;-148.88;100.00;-17125.47;4974462;28;20388;-74
2023/05/25 05:00:33;;;;;;;23.75;10.65;;;;;;;-148.88;100.00;-17125.47;4974524;28;20057;-75
2023/05/25 05:02:59;;;;;;;28.70;16.38;;;;;;;-148.88;100.00;-17125.47;4974367;28;20058;-75
2023/05/25 05:05:24;;;;;;;18.77;9.52;;;;;;;-148.88;100.00;-17125.47;4974386;28;20038;-75
2023/05/25 05:07:50;;;;;;;19.63;9.10;;;;;;;-148.88;100.00;-17125.47;4974834;28;20027;-75
2023/05/25 05:10:16;;;;;;;27.52;17.35;;;;;;;-148.88;100.00;-17125.47;4973154;28;20472;-76
2023/05/25 05:12:42;;;;;;;22.77;9.63;;;;;;;-148.88;100.00;-17125.47;4974052;28;20038;-75
2023/05/25 05:15:07;;;;;;;23.02;9.52;;;;;;;-148.88;100.00;-17125.47;4974308;28;20030;-75
2023/05/25 05:17:33;;;;;;;30.52;18.50;;;;;;;-148.88;100.00;-17125.47;4974299;28;20030;-76
2023/05/25 05:19:58;;;;;;;20.25;9.90;;;;;;;-148.88;100.00;-17125.47;4974241;28;20400;-76
2023/05/25 05:22:23;;;;;;;26.55;10.55;;;;;;;-148.88;100.00;-17125.47;4974112;28;20093;-75
2023/05/25 05:24:49;;;;;;;23.38;10.00;;;;;;;-148.88;100.00;-17125.47;4974338;28;20041;-75
2023/05/25 05:27:15;;;;;;;21.83;10.25;;;;;;;-148.88;100.00;-17125.47;4974292;28;20031;-76
2023/05/25 05:29:41;;;;;;;31.75;18.75;;;;;;;-148.88;100.00;-17125.47;4972996;28;20026;-76
2023/05/25 05:32:07;;;;;;;25.42;11.63;;;;;;;-148.88;100.00;-17125.47;4974125;28;20023;-76
2023/05/25 05:34:33;;;;;;;27.95;11.45;;;;;;;-148.88;100.00;-17125.47;4972826;28;20022;-75
2023/05/25 05:36:59;;;;;;;38.80;22.08;;;;;;;-148.88;100.00;-17125.47;4974971;28;20577;-75
2023/05/25 05:39:26;;;;;;;26.45;11.85;;;;;;;-148.88;100.00;-17125.47;4974443;28;20504;-75
2023/05/25 05:41:51;;;;;;;34.95;13.13;;;;;;;-148.88;100.00;-17125.47;4974348;28;20054;-76
2023/05/25 05:44:16;;;;;;;43.55;24.27;;;;;;;-148.88;100.00;-17125.47;4974306;28;20380;-76
2023/05/25 05:46:42;;;;;;;34.78;21.83;;;;;;;-148.88;100.00;-17125.47;4974438;28;20042;-75
2023/05/25 05:49:07;;;;;;;33.60;21.10;;;;;;;-148.88;100.00;-17125.47;4974142;28;20433;-75
2023/05/25 05:51:33;;;;;;;27.77;11.43;;;;;;;-148.88;100.00;-17125.47;4972830;28;20069;-75
2023/05/25 05:53:58;;;;;;;33.30;11.25;;;;;;;-148.88;100.00;-17125.47;4974019;28;20030;-75
2023/05/25 05:56:23;;;;;;;23.83;11.15;;;;;;;-148.88;100.00;-17125.47;4976311;28;20026;-75
2023/05/25 05:58:52;;;;;;;23.58;10.40;;;;;;;-148.88;100.00;-17125.47;4977884;28;20105;-75
2023/05/25 06:01:17;;;;;;;22.85;10.73;;;;;;;-148.88;100.00;-17125.47;4977505;28;20097;-75
2023/05/25 06:03:44;;;;;;;31.92;11.43;;;;;;;-148.88;100.00;-17125.47;4977391;28;20424;-76
2023/05/25 06:06:10;;;;;;;28.27;18.95;;;;;;;-148.88;100.00;-17125.47;4977660;28;20085;-75
2023/05/25 06:08:35;;;;;;;22.33;10.40;;;;;;;-148.88;100.00;-17125.47;4976069;28;20023;-75
2023/05/25 06:11:01;;;;;;;30.70;19.70;;;;;;;-148.88;100.00;-17125.47;4976087;28;20019;-75
2023/05/25 06:13:26;;;;;;;37.97;19.50;;;;;;;-148.88;100.00;-17125.47;4977232;28;20377;-75
2023/05/25 06:15:52;;;;;;;30.92;18.45;;;;;;;-148.88;100.00;-17125.47;4977287;28;20035;-75
2023/05/25 06:18:17;;;;;;;35.03;17.77;;;;;;;-148.88;100.00;-17125.47;4975845;28;20033;-76
2023/05/25 06:20:43;;;;;;;32.08;17.38;;;;;;;-148.88;100.00;-17125.47;4977679;28;20038;-75
2023/05/25 06:23:11;;;;;;;26.63;16.52;;;;;;;-148.88;100.00;-17125.47;4977075;28;20081;-75
2023/05/25 06:25:36;;;;;;;37.03;18.15;;;;;;;-148.88;100.00;-17125.47;4977212;28;20027;-75
2023/05/25 06:28:02;;;;;;;29.48;17.33;;;;;;;-148.88;100.00;-17125.47;4977041;28;20038;-75
2023/05/25 06:30:28;;;;;;;28.80;17.40;;;;;;;-148.88;100.00;-17125.47;4977247;28;20453;-76
2023/05/25 06:32:53;;;;;;;27.65;17.40;;;;;;;-148.88;100.00;-17125.47;4975653;28;20567;-76
2023/05/25 06:35:18;;;;;;;29.00;15.85;;;;;;;-148.88;100.00;-17125.47;4976880;28;20113;-75
2023/05/25 06:37:46;;;;;;;26.00;15.57;;;;;;;-148.88;100.00;-17125.47;4976978;28;20472;-75
2023/05/25 06:40:11;;;;;;;30.98;16.75;;;;;;;-148.88;100.00;-17125.47;4976850;28;20065;-75
2023/05/25 06:42:37;;;;;;;20.98;9.45;;;;;;;-148.88;100.00;-17125.47;4976720;28;20026;-76
2023/05/25 06:45:03;;;;;;;26.83;16.92;;;;;;;-148.88;100.00;-17125.47;4976766;28;20105;-76
2023/05/25 06:47:29;;;;;;;25.95;16.50;;;;;;;-148.88;100.00;-17125.47;4975412;28;20503;-75
2023/05/25 06:49:55;;;;;;;25.85;16.20;;;;;;;-148.88;100.00;-17125.47;4976958;28;20027;-75
2023/05/25 06:52:20;;;;;;;25.95;16.00;;;;;;;-148.88;100.00;-17125.47;4975542;28;20446;-75
2023/05/25 06:54:46;;;;;;;25.83;15.40;;;;;;;-148.88;100.00;-17125.47;4976608;28;20370;-76
2023/05/25 06:57:11;;;;;;;25.65;15.95;;;;;;;-148.88;100.00;-17125.47;4977096;28;20411;-76
2023/05/25 06:59:36;;;;;;;30.65;16.38;;;;;;;-148.88;100.00;-17125.47;4976524;28;20027;-75
2023/05/25 07:02:02;;;;;;;25.73;15.65;;;;;;;-148.88;100.00;-17125.47;4975329;28;20031;-75
2023/05/25 07:04:27;;;;;;;23.45;14.05;;;;;;;-148.88;100.00;-17125.47;4975106;28;20499;-75
2023/05/25 07:06:53;;;;;;;25.13;15.35;;;;;;;-148.88;100.00;-17125.47;4976294;28;20081;-76
2023/05/25 07:09:18;;;;;;;24.40;14.50;;;;;;;-148.88;100.00;-17125.47;4976328;28;20488;-75
2023/05/25 07:11:44;;;;;;;22.00;13.32;;;;;;;-148.88;100.00;-17125.47;4976192;28;20030;-75
2023/05/25 07:14:09;;;;;;;24.92;12.68;;;;;;;-148.88;100.00;-17125.47;4976039;28;20026;-75
2023/05/25 07:16:34;;;;;;;20.20;12.65;;;;;;;-148.88;100.00;-17125.47;4976415;28;20481;-75
2023/05/25 07:19:00;;;;;;;21.67;13.40;;;;;;;-148.88;100.00;-17125.47;4975954;28;20061;-75
2023/05/25 07:21:25;;;;;;;21.73;12.65;;;;;;;-148.88;100.00;-17125.47;4974733;28;20026;-76
2023/05/25 07:23:51;;;;;;;23.95;14.50;;;;;;;-148.88;100.00;-17125.47;4975972;28;20042;-76
2023/05/25 07:26:16;;;;;;;25.77;14.00;;;;;;;-148.88;100.00;-17125.47;4975945;28;20018;-76
2023/05/25 07:28:42;;;;;;;23.00;15.10;;;;;;;-148.88;100.00;-17125.47;4975964;28;20036;-75
2023/05/25 07:31:09;;;;;;;24.90;15.07;;;;;;;-148.88;100.00;-17125.47;4976177;28;20388;-75
2023/05/25 07:33:34;;;;;;;22.23;13.90;;;;;;;-148.88;100.00;-17125.47;4975783;28;20058;-76
2023/05/25 07:36:00;;;;;;;21.92;13.88;;;;;;;-148.88;100.00;-17125.47;4976134;28;20050;-76
2023/05/25 07:38:25;;;;;;;25.33;14.27;;;;;;;-148.88;100.00;-17125.47;4975794;28;20019;-76
2023/05/25 07:40:51;;;;;;;27.67;15.50;;;;;;;-148.88;100.00;-17125.47;4976221;28;20118;-76
2023/05/25 07:43:17;;;;;;;27.70;14.68;;;;;;;-148.88;100.00;-17125.47;4975626;28;20101;-76
2023/05/25 07:45:42;;;;;;;23.13;12.70;;;;;;;-148.88;100.00;-17125.47;4974425;28;20039;-76
2023/05/25 07:48:08;;;;;;;18.90;11.55;;;;;;;-148.88;100.00;-17125.47;4974337;28;20019;-76
2023/05/25 07:50:33;;;;;;;22.15;11.77;;;;;;;-148.88;100.00;-17125.47;4975616;28;20023;-76
2023/05/25 07:52:59;;;;;;;20.50;12.10;;;;;;;-148.88;100.00;-17125.47;4975610;28;20033;-76
2023/05/25 07:55:27;;;;;;;24.65;12.80;;;;;;;-148.88;100.00;-17125.47;4975445;28;20114;-76
2023/05/25 07:57:52;;;;;;;24.75;13.43;;;;;;;-148.88;100.00;-17125.47;4975429;28;20400;-76
2023/05/25 08:00:18;;;;;;;23.60;13.60;;;;;;;-148.88;100.00;-17125.47;4974088;28;20481;-76
2023/05/25 08:02:44;;;;;;;21.95;12.27;;;;;;;-148.88;100.00;-17125.47;4975592;28;20059;-76
2023/05/25 08:05:11;;;;;;;23.08;13.15;;;;;;;-148.88;100.00;-17125.47;4974101;28;20051;-76
2023/05/25 08:07:37;;;;;;;19.25;13.00;;;;;;;-148.88;100.00;-17125.47;4975168;28;20022;-76
2023/05/25 08:10:02;;;;;;;20.98;11.98;;;;;;;-148.88;100.00;-17125.47;4975250;28;20045;-76
2023/05/25 08:12:28;;;;;;;20.25;11.95;;;;;;;-148.88;100.00;-17125.47;4975085;28;20109;-76
2023/05/25 08:14:54;;;;;;;20.77;13.20;;;;;;;-148.88;100.00;-17125.47;4973832;28;20030;-76
2023/05/25 08:17:20;;;;;;;25.40;15.85;;;;;;;-148.88;100.00;-17125.47;4974577;28;20039;-76
2023/05/25 08:19:45;;;;;;;32.03;18.58;;;;;;;-148.88;100.00;-17125.47;4973628;28;20449;-76
2023/05/25 08:22:11;;;;;;;35.45;18.70;;;;;;;-148.88;100.00;-17125.47;4974783;28;20050;-76
2023/05/25 08:24:36;;;;;;;33.50;20.13;;;;;;;-148.88;100.00;-17125.47;4973658;28;20449;-76
2023/05/25 08:27:02;;;;;;;31.40;19.20;;;;;;;-148.88;100.00;-17125.47;4975270;28;20026;-76
2023/05/25 08:29:27;;;;;;;33.88;20.75;;;;;;;-148.88;100.00;-17125.47;4975416;28;20437;-76
2023/05/25 08:31:53;;;;;;;35.25;19.83;;;;;;;-148.88;100.00;-17125.47;4975235;28;20085;-76
2023/05/25 08:34:18;;;;;;;35.03;20.63;;;;;;;-148.88;100.00;-17125.47;4974749;28;20097;-76
2023/05/25 08:36:44;;;;;;;29.60;18.55;;;;;;;-148.88;100.00;-17125.47;4975054;28;20031;-76
2023/05/25 08:39:10;;;;;;;28.98;19.33;;;;;;;-148.88;100.00;-17125.47;4974719;28;20397;-76
2023/05/25 08:41:39;;;;;;;33.90;19.73;;;;;;;-148.88;100.00;-17125.47;4974625;28;20110;-76
2023/05/25 08:44:07;;;;;;;32.08;20.92;;;;;;;-148.88;100.00;-17125.47;4974811;28;20026;-76
2023/05/25 08:46:32;;;;;;;33.33;16.00;;;;;;;-148.88;100.00;-17125.47;4974974;28;20109;-76
2023/05/25 08:49:03;;;;;;;24.60;17.27;;;;;;;-148.88;100.00;-17125.47;4974921;28;20058;-76
2023/05/25 08:51:35;;;;;;;30.50;18.90;;;;;;;-148.88;100.00;-17125.47;4974640;28;20034;-76
2023/05/25 08:54:07;;;;;;;31.38;19.48;;;;;;;-148.88;100.00;-17125.47;4974611;28;20038;-76
2023/05/25 08:56:39;;;;;;;28.50;18.00;;;;;;;-148.88;100.00;-17125.47;4974861;28;20023;-76
2023/05/25 08:59:15;;;;;;;28.27;19.25;;;;;;;-148.88;100.00;-17125.47;4974833;28;20387;-76
2023/05/25 09:01:45;;;;;;;32.75;19.25;;;;;;;-148.88;100.00;-17125.47;4974469;28;20026;-76
2023/05/25 09:04:18;;;;;;;31.08;18.00;;;;;;;-148.88;100.00;-17125.47;4974829;28;20027;-76
2023/05/25 09:06:44;;;;;;;23.40;15.25;;;;;;;-148.88;100.00;-17125.47;4974777;28;20027;-76
2023/05/25 09:09:11;;;;;;;27.73;16.10;;;;;;;-148.88;100.00;-17125.47;4973635;28;20493;-76
2023/05/25 09:11:38;;;;;;;22.58;12.80;;;;;;;-148.88;100.00;-17125.47;4974431;28;20436;-76
2023/05/25 09:14:05;;;;;;;21.23;13.00;;;;;;;-148.88;100.00;-17125.47;4973073;28;20025;-76
2023/05/25 09:16:31;;;;;;;21.05;12.40;;;;;;;-148.88;100.00;-17125.47;4974385;28;20086;-76
2023/05/25 09:18:57;;;;;;;19.67;12.07;;;;;;;-148.88;100.00;-17125.47;4974149;28;20031;-76
2023/05/25 09:21:24;;;;;;;18.50;12.07;;;;;;;-148.88;100.00;-17125.47;4974219;28;20118;-76
2023/05/25 09:23:50;;;;;;;19.88;12.93;;;;;;;-148.88;100.00;-17125.47;4974415;28;20441;-76
2023/05/25 09:26:15;;;;;;;30.20;14.40;;;;;;;-148.88;100.00;-17125.47;4973024;28;20519;-76
2023/05/25 09:28:46;;;;;;;23.75;12.73;;;;;;;-148.88;100.00;-17125.47;4973007;28;20333;-76
2023/05/25 09:31:14;;;;;;;23.17;13.80;;;;;;;-148.88;100.00;-17125.47;4977644;28;20046;-76
2023/05/25 09:33:41;;;;;;;17.92;11.93;;;;;;;-148.88;100.00;-17125.47;4976717;28;20030;-76
2023/05/25 09:36:07;;;;;;;22.13;13.10;;;;;;;-148.88;100.00;-17125.47;4978577;28;20057;-76
2023/05/25 09:38:33;;;;;;;22.40;13.73;;;;;;;-148.88;100.00;-17125.47;4977944;28;20030;-76
2023/05/25 09:41:03;;;;;;;20.00;12.63;;;;;;;-148.88;100.00;-17125.47;4977944;28;20038;-76
2023/05/25 09:43:34;;;;;;;19.60;12.18;;;;;;;-148.88;100.00;-17125.47;4977928;28;20492;-76
2023/05/25 09:46:00;;;;;;;18.88;12.23;;;;;;;-148.88;100.00;-17125.47;4977797;28;20023;-76
2023/05/25 09:48:28;;;;;;;17.77;11.05;;;;;;;-148.88;100.00;-17125.47;4977733;28;20081;-76
2023/05/25 09:51:04;;;;;;;17.77;11.55;;;;;;;-148.88;100.00;-17125.47;4978238;28;20090;-77
2023/05/25 09:53:44;;;;;;;20.85;12.73;;;;;;;-148.88;100.00;-17125.47;4977609;28;20472;-75
2023/05/25 09:56:22;;;;;;;22.90;12.50;;;;;;;-148.88;100.00;-17125.47;4977665;28;20030;-75
2023/05/25 09:58:53;;;;;;;20.85;13.05;;;;;;;-148.88;100.00;-17125.47;4976262;28;20114;-75
2023/05/25 10:01:31;;;;;;;20.23;12.63;;;;;;;-148.88;100.00;-17125.47;4978005;28;20524;-75
2023/05/25 10:03:58;;;;;;;19.45;13.45;;;;;;;-148.88;100.00;-17125.47;4977970;28;20030;-75
2023/05/25 10:06:48;;;;;;;20.77;13.52;;;;;;;-148.88;100.00;-17125.47;4977568;28;20030;-75
2023/05/25 10:09:18;;;;;;;25.08;12.73;;;;;;;-148.88;100.00;-17125.47;4977924;28;20081;-76
2023/05/25 10:11:52;;;;;;;22.20;13.40;;;;;;;-148.88;100.00;-17125.47;4977354;28;20023;-75
2023/05/25 10:14:28;;;;;;;17.13;10.90;;;;;;;-148.88;100.00;-17125.47;4976155;28;20043;-75
2023/05/25 10:17:03;;;;;;;19.67;10.35;;;;;;;-148.88;100.00;-17125.47;4976324;28;20045;-75
2023/05/25 10:20:04;;;;;;;17.42;11.80;;;;;;;-148.88;100.00;-17125.47;5018736;23;20481;-90
2023/05/25 10:22:35;;;;;;;21.98;11.02;;;;;;;-148.88;100.00;-17125.47;4997086;28;20042;-88
2023/05/25 10:25:06;;;;;;;18.95;10.98;;;;;;;-148.88;100.00;-17125.47;5014813;28;20053;-88
2023/05/25 10:27:40;;;;;;;20.95;11.50;;;;;;;-148.88;100.00;-17125.47;5016027;28;20029;-88
2023/05/25 10:30:17;;;;;;;18.67;11.65;;;;;;;-148.88;100.00;-17125.47;5015736;28;20057;-88
2023/05/25 10:32:44;;;;;;;19.95;11.75;;;;;;;-148.88;100.00;-17125.47;5016907;28;20021;-86
2023/05/25 10:35:10;;;;;;;17.80;11.40;;;;;;;-148.88;99.68;-17125.47;5020347;28;20022;-86
2023/05/25 10:37:38;;;;;;;17.13;10.27;;;;;;;-148.88;98.27;-17125.47;5018461;28;20025;-85
2023/05/25 10:40:09;;;;;;;21.17;10.93;;;;;;;-148.88;100.00;-17125.47;5017875;28;20079;-84
2023/05/25 10:42:36;;;;;;;17.75;10.27;;;;;;;-148.88;100.00;-17125.47;5018590;28;20018;-86
2023/05/25 10:45:05;;;;;;;18.63;10.20;;;;;;;-148.88;100.00;-17125.47;5018864;28;20025;-85
2023/05/25 10:47:30;;;;;;;18.38;10.18;;;;;;;-148.88;100.00;-17125.47;5017969;28;20496;-86
2023/05/25 10:50:01;;;;;;;17.23;9.77;;;;;;;-148.88;100.00;-17125.47;5018393;28;20112;-85